sensor_id;sensor_type;location;lat;lon;timestamp;P1;durP1;ratioP1;P2;durP2;ratioP2
49392;SDS011;35268;42.642;23.308;2022-12-18T00:01:28;9.38;;;3.50;;
49392;SDS011;35268;42.642;23.308;2022-12-18T00:03:58;7.22;;;3.97;;
49392;SDS011;35268;42.642;23.308;2022-12-18T00:06:26;6.18;;;3.75;;
49392;SDS011;35268;42.642;23.308;2022-12-18T00:08:53;5.55;;;4.32;;
49392;SDS011;35268;42.642;23.308;2022-12-18T00:11:20;6.85;;;4.18;;
49392;SDS011;35268;42.642;23.308;2022-12-18T00:13:47;8.20;;;4.78;;
49392;SDS011;35268;42.642;23.308;2022-12-18T00:16:17;8.20;;;4.82;;
49392;SDS011;35268;42.642;23.308;2022-12-18T00:18:45;7.72;;;4.47;;
49392;SDS011;35268;42.642;23.308;2022-12-18T00:21:11;7.65;;;5.00;;
49392;SDS011;35268;42.642;23.308;2022-12-18T00:23:38;9.77;;;5.90;;
49392;SDS011;35268;42.642;23.308;2022-12-18T00:26:06;9.07;;;4.95;;
49392;SDS011;35268;42.642;23.308;2022-12-18T00:28:35;10.88;;;5.35;;
49392;SDS011;35268;42.642;23.308;2022-12-18T00:33:27;9.10;;;5.43;;
49392;SDS011;35268;42.642;23.308;2022-12-18T00:35:53;9.13;;;5.15;;
49392;SDS011;35268;42.642;23.308;2022-12-18T00:38:18;9.80;;;5.13;;
49392;SDS011;35268;42.642;23.308;2022-12-18T00:40:44;11.10;;;6.07;;
49392;SDS011;35268;42.642;23.308;2022-12-18T00:43:09;9.27;;;5.57;;
49392;SDS011;35268;42.642;23.308;2022-12-18T00:45:35;7.93;;;4.90;;
49392;SDS011;35268;42.642;23.308;2022-12-18T00:48:00;10.60;;;5.25;;
49392;SDS011;35268;42.642;23.308;2022-12-18T00:50:26;9.38;;;5.50;;
49392;SDS011;35268;42.642;23.308;2022-12-18T00:52:51;9.65;;;5.57;;
49392;SDS011;35268;42.642;23.308;2022-12-18T00:55:17;9.98;;;4.78;;
49392;SDS011;35268;42.642;23.308;2022-12-18T00:57:43;8.75;;;5.13;;
49392;SDS011;35268;42.642;23.308;2022-12-18T01:00:13;7.80;;;4.88;;
49392;SDS011;35268;42.642;23.308;2022-12-18T01:02:40;8.23;;;5.13;;
49392;SDS011;35268;42.642;23.308;2022-12-18T01:05:05;11.75;;;5.20;;
49392;SDS011;35268;42.642;23.308;2022-12-18T01:07:31;9.05;;;5.30;;
49392;SDS011;35268;42.642;23.308;2022-12-18T01:09:57;9.75;;;5.03;;
49392;SDS011;35268;42.642;23.308;2022-12-18T01:12:22;8.65;;;4.82;;
49392;SDS011;35268;42.642;23.308;2022-12-18T01:14:48;8.10;;;4.80;;
49392;SDS011;35268;42.642;23.308;2022-12-18T01:17:13;10.18;;;5.60;;
49392;SDS011;35268;42.642;23.308;2022-12-18T01:19:39;9.80;;;5.35;;
49392;SDS011;35268;42.642;23.308;2022-12-18T01:22:04;11.10;;;4.65;;
49392;SDS011;35268;42.642;23.308;2022-12-18T01:24:30;9.95;;;4.80;;
49392;SDS011;35268;42.642;23.308;2022-12-18T01:26:56;8.70;;;5.13;;
49392;SDS011;35268;42.642;23.308;2022-12-18T01:29:22;10.43;;;5.88;;
49392;SDS011;35268;42.642;23.308;2022-12-18T01:31:47;10.13;;;5.93;;
49392;SDS011;35268;42.642;23.308;2022-12-18T01:34:13;10.50;;;6.80;;
49392;SDS011;35268;42.642;23.308;2022-12-18T01:36:39;11.98;;;6.82;;
49392;SDS011;35268;42.642;23.308;2022-12-18T01:39:06;9.73;;;5.47;;
49392;SDS011;35268;42.642;23.308;2022-12-18T01:41:36;12.00;;;6.75;;
49392;SDS011;35268;42.642;23.308;2022-12-18T01:49:49;16.42;;;7.00;;
49392;SDS011;35268;42.642;23.308;2022-12-18T01:52:15;11.80;;;6.60;;
49392;SDS011;35268;42.642;23.308;2022-12-18T01:54:42;16.15;;;7.15;;
49392;SDS011;35268;42.642;23.308;2022-12-18T01:57:08;12.75;;;6.93;;
49392;SDS011;35268;42.642;23.308;2022-12-18T01:59:34;11.60;;;7.10;;
49392;SDS011;35268;42.642;23.308;2022-12-18T02:02:00;13.88;;;7.35;;
49392;SDS011;35268;42.642;23.308;2022-12-18T02:04:27;11.93;;;6.90;;
49392;SDS011;35268;42.642;23.308;2022-12-18T02:09:41;13.98;;;6.88;;
49392;SDS011;35268;42.642;23.308;2022-12-18T02:14:56;14.90;;;7.00;;
49392;SDS011;35268;42.642;23.308;2022-12-18T02:17:30;12.48;;;7.93;;
49392;SDS011;35268;42.642;23.308;2022-12-18T02:28:34;14.90;;;7.13;;
49392;SDS011;35268;42.642;23.308;2022-12-18T02:31:04;14.35;;;7.53;;
49392;SDS011;35268;42.642;23.308;2022-12-18T02:33:34;14.18;;;7.22;;
49392;SDS011;35268;42.642;23.308;2022-12-18T02:36:02;14.63;;;7.60;;
49392;SDS011;35268;42.642;23.308;2022-12-18T02:38:29;13.07;;;7.55;;
49392;SDS011;35268;42.642;23.308;2022-12-18T02:40:56;12.38;;;7.55;;
49392;SDS011;35268;42.642;23.308;2022-12-18T02:43:22;10.70;;;6.35;;
49392;SDS011;35268;42.642;23.308;2022-12-18T02:45:49;13.93;;;6.57;;
49392;SDS011;35268;42.642;23.308;2022-12-18T02:48:31;13.35;;;6.82;;
49392;SDS011;35268;42.642;23.308;2022-12-18T02:51:13;14.52;;;7.05;;
49392;SDS011;35268;42.642;23.308;2022-12-18T02:53:51;14.73;;;7.57;;
49392;SDS011;35268;42.642;23.308;2022-12-18T02:59:11;12.52;;;6.32;;
49392;SDS011;35268;42.642;23.308;2022-12-18T03:01:43;14.15;;;6.55;;
49392;SDS011;35268;42.642;23.308;2022-12-18T03:04:25;13.20;;;7.35;;
49392;SDS011;35268;42.642;23.308;2022-12-18T03:06:53;13.27;;;6.68;;
49392;SDS011;35268;42.642;23.308;2022-12-18T03:09:22;12.88;;;6.75;;
49392;SDS011;35268;42.642;23.308;2022-12-18T03:12:06;10.73;;;6.38;;
49392;SDS011;35268;42.642;23.308;2022-12-18T03:17:30;10.55;;;5.75;;
49392;SDS011;35268;42.642;23.308;2022-12-18T03:19:58;10.23;;;5.47;;
49392;SDS011;35268;42.642;23.308;2022-12-18T03:22:29;10.20;;;5.70;;
49392;SDS011;35268;42.642;23.308;2022-12-18T03:24:57;10.93;;;6.32;;
49392;SDS011;35268;42.642;23.308;2022-12-18T03:27:25;9.02;;;5.05;;
49392;SDS011;35268;42.642;23.308;2022-12-18T03:29:56;7.57;;;3.92;;
49392;SDS011;35268;42.642;23.308;2022-12-18T03:32:38;7.82;;;3.90;;
49392;SDS011;35268;42.642;23.308;2022-12-18T03:35:08;7.05;;;4.35;;
49392;SDS011;35268;42.642;23.308;2022-12-18T03:37:35;9.60;;;4.55;;
49392;SDS011;35268;42.642;23.308;2022-12-18T03:40:01;8.10;;;4.07;;
49392;SDS011;35268;42.642;23.308;2022-12-18T03:45:12;7.55;;;4.28;;
49392;SDS011;35268;42.642;23.308;2022-12-18T03:48:01;5.70;;;3.53;;
49392;SDS011;35268;42.642;23.308;2022-12-18T03:56:01;7.85;;;4.00;;
49392;SDS011;35268;42.642;23.308;2022-12-18T03:58:29;7.15;;;4.18;;
49392;SDS011;35268;42.642;23.308;2022-12-18T04:00:58;6.35;;;3.97;;
49392;SDS011;35268;42.642;23.308;2022-12-18T04:03:27;8.82;;;4.35;;
49392;SDS011;35268;42.642;23.308;2022-12-18T04:05:54;6.82;;;3.63;;
49392;SDS011;35268;42.642;23.308;2022-12-18T04:08:22;8.90;;;4.15;;
49392;SDS011;35268;42.642;23.308;2022-12-18T04:10:49;6.68;;;3.97;;
49392;SDS011;35268;42.642;23.308;2022-12-18T04:13:21;9.32;;;3.97;;
49392;SDS011;35268;42.642;23.308;2022-12-18T04:15:48;7.43;;;4.22;;
49392;SDS011;35268;42.642;23.308;2022-12-18T04:18:13;7.25;;;4.28;;
49392;SDS011;35268;42.642;23.308;2022-12-18T04:20:39;9.38;;;5.03;;
49392;SDS011;35268;42.642;23.308;2022-12-18T04:23:04;7.05;;;4.18;;
49392;SDS011;35268;42.642;23.308;2022-12-18T04:25:30;8.40;;;4.40;;
49392;SDS011;35268;42.642;23.308;2022-12-18T04:27:55;10.07;;;4.65;;
49392;SDS011;35268;42.642;23.308;2022-12-18T04:30:21;9.75;;;4.50;;
49392;SDS011;35268;42.642;23.308;2022-12-18T04:32:46;6.72;;;3.80;;
49392;SDS011;35268;42.642;23.308;2022-12-18T04:35:12;9.68;;;4.03;;
49392;SDS011;35268;42.642;23.308;2022-12-18T04:37:37;8.43;;;3.80;;
49392;SDS011;35268;42.642;23.308;2022-12-18T04:40:03;8.25;;;4.45;;
49392;SDS011;35268;42.642;23.308;2022-12-18T04:42:28;8.55;;;4.40;;
49392;SDS011;35268;42.642;23.308;2022-12-18T04:44:54;8.60;;;4.68;;
49392;SDS011;35268;42.642;23.308;2022-12-18T04:47:19;10.18;;;4.53;;
49392;SDS011;35268;42.642;23.308;2022-12-18T04:49:45;13.52;;;5.32;;
49392;SDS011;35268;42.642;23.308;2022-12-18T04:52:10;10.07;;;4.75;;
49392;SDS011;35268;42.642;23.308;2022-12-18T04:54:36;10.40;;;5.35;;
49392;SDS011;35268;42.642;23.308;2022-12-18T04:57:01;10.80;;;5.80;;
49392;SDS011;35268;42.642;23.308;2022-12-18T04:59:27;11.55;;;5.47;;
49392;SDS011;35268;42.642;23.308;2022-12-18T05:01:52;10.45;;;5.40;;
49392;SDS011;35268;42.642;23.308;2022-12-18T05:04:18;9.23;;;4.93;;
49392;SDS011;35268;42.642;23.308;2022-12-18T05:06:43;9.10;;;4.80;;
49392;SDS011;35268;42.642;23.308;2022-12-18T05:09:08;13.52;;;6.60;;
49392;SDS011;35268;42.642;23.308;2022-12-18T05:11:34;11.52;;;6.00;;
49392;SDS011;35268;42.642;23.308;2022-12-18T05:13:59;11.07;;;5.90;;
49392;SDS011;35268;42.642;23.308;2022-12-18T05:16:25;14.05;;;6.53;;
49392;SDS011;35268;42.642;23.308;2022-12-18T05:18:50;11.02;;;6.13;;
49392;SDS011;35268;42.642;23.308;2022-12-18T05:21:16;15.48;;;5.60;;
49392;SDS011;35268;42.642;23.308;2022-12-18T05:23:41;12.10;;;5.68;;
49392;SDS011;35268;42.642;23.308;2022-12-18T05:26:07;9.57;;;5.10;;
49392;SDS011;35268;42.642;23.308;2022-12-18T05:28:33;10.40;;;5.50;;
49392;SDS011;35268;42.642;23.308;2022-12-18T05:31:00;12.52;;;7.68;;
49392;SDS011;35268;42.642;23.308;2022-12-18T05:33:28;15.98;;;7.60;;
49392;SDS011;35268;42.642;23.308;2022-12-18T05:35:56;12.25;;;6.60;;
49392;SDS011;35268;42.642;23.308;2022-12-18T05:38:23;10.02;;;5.60;;
49392;SDS011;35268;42.642;23.308;2022-12-18T05:40:50;14.40;;;7.45;;
49392;SDS011;35268;42.642;23.308;2022-12-18T05:43:17;10.65;;;5.63;;
49392;SDS011;35268;42.642;23.308;2022-12-18T05:45:44;15.23;;;5.93;;
49392;SDS011;35268;42.642;23.308;2022-12-18T05:48:10;14.57;;;6.50;;
49392;SDS011;35268;42.642;23.308;2022-12-18T05:50:36;11.80;;;6.75;;
49392;SDS011;35268;42.642;23.308;2022-12-18T05:53:02;14.32;;;6.65;;
49392;SDS011;35268;42.642;23.308;2022-12-18T05:55:29;16.20;;;8.27;;
49392;SDS011;35268;42.642;23.308;2022-12-18T05:57:57;18.23;;;9.02;;
49392;SDS011;35268;42.642;23.308;2022-12-18T06:00:22;20.30;;;8.07;;
49392;SDS011;35268;42.642;23.308;2022-12-18T06:02:48;25.85;;;9.50;;
49392;SDS011;35268;42.642;23.308;2022-12-18T06:05:13;15.93;;;7.80;;
49392;SDS011;35268;42.642;23.308;2022-12-18T06:07:39;16.60;;;9.05;;
49392;SDS011;35268;42.642;23.308;2022-12-18T06:10:05;18.50;;;8.68;;
49392;SDS011;35268;42.642;23.308;2022-12-18T06:12:30;13.70;;;7.90;;
49392;SDS011;35268;42.642;23.308;2022-12-18T06:14:58;17.13;;;8.25;;
49392;SDS011;35268;42.642;23.308;2022-12-18T06:17:27;16.73;;;8.00;;
49392;SDS011;35268;42.642;23.308;2022-12-18T06:19:53;15.65;;;8.38;;
49392;SDS011;35268;42.642;23.308;2022-12-18T06:22:19;16.08;;;7.65;;
49392;SDS011;35268;42.642;23.308;2022-12-18T06:24:44;13.55;;;7.07;;
49392;SDS011;35268;42.642;23.308;2022-12-18T06:27:10;15.27;;;7.38;;
49392;SDS011;35268;42.642;23.308;2022-12-18T06:29:35;13.05;;;6.57;;
49392;SDS011;35268;42.642;23.308;2022-12-18T06:32:01;15.50;;;7.20;;
49392;SDS011;35268;42.642;23.308;2022-12-18T06:34:26;12.90;;;6.80;;
49392;SDS011;35268;42.642;23.308;2022-12-18T06:36:52;14.85;;;6.82;;
49392;SDS011;35268;42.642;23.308;2022-12-18T06:39:17;15.65;;;8.45;;
49392;SDS011;35268;42.642;23.308;2022-12-18T06:41:43;13.48;;;6.95;;
49392;SDS011;35268;42.642;23.308;2022-12-18T06:44:08;14.75;;;6.85;;
49392;SDS011;35268;42.642;23.308;2022-12-18T06:46:34;13.60;;;6.68;;
49392;SDS011;35268;42.642;23.308;2022-12-18T06:48:59;12.65;;;6.20;;
49392;SDS011;35268;42.642;23.308;2022-12-18T06:51:24;19.15;;;8.05;;
49392;SDS011;35268;42.642;23.308;2022-12-18T06:53:51;14.40;;;7.38;;
49392;SDS011;35268;42.642;23.308;2022-12-18T06:56:16;15.75;;;8.13;;
49392;SDS011;35268;42.642;23.308;2022-12-18T06:58:42;15.00;;;7.25;;
49392;SDS011;35268;42.642;23.308;2022-12-18T07:01:08;12.27;;;6.53;;
49392;SDS011;35268;42.642;23.308;2022-12-18T07:03:36;11.80;;;6.70;;
49392;SDS011;35268;42.642;23.308;2022-12-18T07:06:02;14.85;;;7.18;;
49392;SDS011;35268;42.642;23.308;2022-12-18T07:08:29;14.70;;;8.63;;
49392;SDS011;35268;42.642;23.308;2022-12-18T07:10:55;16.52;;;7.32;;
49392;SDS011;35268;42.642;23.308;2022-12-18T07:13:21;16.60;;;7.15;;
49392;SDS011;35268;42.642;23.308;2022-12-18T07:15:46;13.07;;;6.90;;
49392;SDS011;35268;42.642;23.308;2022-12-18T07:18:12;12.57;;;6.55;;
49392;SDS011;35268;42.642;23.308;2022-12-18T07:20:37;15.02;;;7.50;;
49392;SDS011;35268;42.642;23.308;2022-12-18T07:23:03;10.43;;;6.35;;
49392;SDS011;35268;42.642;23.308;2022-12-18T07:25:30;14.00;;;7.05;;
49392;SDS011;35268;42.642;23.308;2022-12-18T07:28:02;13.68;;;7.30;;
49392;SDS011;35268;42.642;23.308;2022-12-18T07:30:28;18.67;;;7.53;;
49392;SDS011;35268;42.642;23.308;2022-12-18T07:32:53;14.55;;;6.97;;
49392;SDS011;35268;42.642;23.308;2022-12-18T07:35:19;13.27;;;6.30;;
49392;SDS011;35268;42.642;23.308;2022-12-18T07:37:44;14.15;;;7.53;;
49392;SDS011;35268;42.642;23.308;2022-12-18T07:40:10;15.98;;;8.18;;
49392;SDS011;35268;42.642;23.308;2022-12-18T07:42:36;16.95;;;8.00;;
49392;SDS011;35268;42.642;23.308;2022-12-18T07:45:05;19.08;;;8.15;;
49392;SDS011;35268;42.642;23.308;2022-12-18T07:47:30;16.90;;;8.18;;
49392;SDS011;35268;42.642;23.308;2022-12-18T07:49:58;16.65;;;8.38;;
49392;SDS011;35268;42.642;23.308;2022-12-18T07:52:24;13.90;;;7.65;;
49392;SDS011;35268;42.642;23.308;2022-12-18T07:54:49;15.35;;;8.07;;
49392;SDS011;35268;42.642;23.308;2022-12-18T07:57:15;16.80;;;8.15;;
49392;SDS011;35268;42.642;23.308;2022-12-18T07:59:41;14.88;;;7.32;;
49392;SDS011;35268;42.642;23.308;2022-12-18T08:02:07;16.77;;;8.15;;
49392;SDS011;35268;42.642;23.308;2022-12-18T08:04:35;19.55;;;7.50;;
49392;SDS011;35268;42.642;23.308;2022-12-18T08:07:00;20.33;;;9.15;;
49392;SDS011;35268;42.642;23.308;2022-12-18T08:09:26;23.30;;;10.65;;
49392;SDS011;35268;42.642;23.308;2022-12-18T08:11:51;17.98;;;9.82;;
49392;SDS011;35268;42.642;23.308;2022-12-18T08:14:17;22.70;;;10.98;;
49392;SDS011;35268;42.642;23.308;2022-12-18T08:16:42;26.83;;;12.05;;
49392;SDS011;35268;42.642;23.308;2022-12-18T08:19:08;22.15;;;10.30;;
49392;SDS011;35268;42.642;23.308;2022-12-18T08:21:33;22.90;;;11.02;;
49392;SDS011;35268;42.642;23.308;2022-12-18T08:23:59;21.80;;;11.73;;
49392;SDS011;35268;42.642;23.308;2022-12-18T08:26:26;23.48;;;11.43;;
49392;SDS011;35268;42.642;23.308;2022-12-18T08:28:55;25.63;;;12.48;;
49392;SDS011;35268;42.642;23.308;2022-12-18T08:34:19;23.58;;;11.90;;
49392;SDS011;35268;42.642;23.308;2022-12-18T08:36:45;21.08;;;11.68;;
49392;SDS011;35268;42.642;23.308;2022-12-18T08:39:10;27.92;;;12.13;;
49392;SDS011;35268;42.642;23.308;2022-12-18T08:41:35;24.40;;;11.75;;
49392;SDS011;35268;42.642;23.308;2022-12-18T08:44:01;25.65;;;12.02;;
49392;SDS011;35268;42.642;23.308;2022-12-18T08:46:45;27.25;;;13.75;;
49392;SDS011;35268;42.642;23.308;2022-12-18T08:49:11;26.10;;;11.45;;
49392;SDS011;35268;42.642;23.308;2022-12-18T08:51:37;26.52;;;12.05;;
49392;SDS011;35268;42.642;23.308;2022-12-18T08:54:04;32.05;;;14.13;;
49392;SDS011;35268;42.642;23.308;2022-12-18T08:56:29;28.08;;;13.95;;
49392;SDS011;35268;42.642;23.308;2022-12-18T08:58:55;28.58;;;14.27;;
49392;SDS011;35268;42.642;23.308;2022-12-18T09:01:21;31.75;;;14.52;;
49392;SDS011;35268;42.642;23.308;2022-12-18T09:03:50;28.30;;;14.00;;
49392;SDS011;35268;42.642;23.308;2022-12-18T09:06:17;30.88;;;14.32;;
49392;SDS011;35268;42.642;23.308;2022-12-18T09:08:44;32.10;;;14.60;;
49392;SDS011;35268;42.642;23.308;2022-12-18T09:11:28;28.38;;;14.40;;
49392;SDS011;35268;42.642;23.308;2022-12-18T09:13:54;29.98;;;14.00;;
49392;SDS011;35268;42.642;23.308;2022-12-18T09:16:21;29.70;;;15.50;;
49392;SDS011;35268;42.642;23.308;2022-12-18T09:18:47;26.45;;;14.02;;
49392;SDS011;35268;42.642;23.308;2022-12-18T09:21:14;29.67;;;15.00;;
49392;SDS011;35268;42.642;23.308;2022-12-18T09:23:41;28.70;;;14.90;;
49392;SDS011;35268;42.642;23.308;2022-12-18T09:26:07;29.80;;;14.52;;
49392;SDS011;35268;42.642;23.308;2022-12-18T09:28:33;34.40;;;15.45;;
49392;SDS011;35268;42.642;23.308;2022-12-18T09:30:58;31.85;;;16.20;;
49392;SDS011;35268;42.642;23.308;2022-12-18T09:33:24;40.05;;;15.68;;
49392;SDS011;35268;42.642;23.308;2022-12-18T09:35:50;32.85;;;14.52;;
49392;SDS011;35268;42.642;23.308;2022-12-18T09:38:16;26.83;;;13.80;;
49392;SDS011;35268;42.642;23.308;2022-12-18T09:43:20;31.27;;;15.35;;
49392;SDS011;35268;42.642;23.308;2022-12-18T09:46:01;33.08;;;13.90;;
49392;SDS011;35268;42.642;23.308;2022-12-18T09:48:32;32.25;;;15.82;;
49392;SDS011;35268;42.642;23.308;2022-12-18T09:51:02;26.15;;;12.85;;
49392;SDS011;35268;42.642;23.308;2022-12-18T09:53:35;28.92;;;14.13;;
49392;SDS011;35268;42.642;23.308;2022-12-18T09:56:19;28.75;;;13.30;;
49392;SDS011;35268;42.642;23.308;2022-12-18T09:58:58;26.88;;;12.93;;
49392;SDS011;35268;42.642;23.308;2022-12-18T10:01:24;26.15;;;12.75;;
49392;SDS011;35268;42.642;23.308;2022-12-18T10:03:52;25.92;;;12.48;;
49392;SDS011;35268;42.642;23.308;2022-12-18T10:06:30;24.75;;;11.43;;
49392;SDS011;35268;42.642;23.308;2022-12-18T10:09:09;25.20;;;12.55;;
49392;SDS011;35268;42.642;23.308;2022-12-18T10:17:38;27.40;;;13.13;;
49392;SDS011;35268;42.642;23.308;2022-12-18T10:20:28;26.08;;;12.32;;
49392;SDS011;35268;42.642;23.308;2022-12-18T10:23:14;25.45;;;12.30;;
49392;SDS011;35268;42.642;23.308;2022-12-18T10:28:31;26.35;;;13.27;;
49392;SDS011;35268;42.642;23.308;2022-12-18T10:31:02;29.10;;;13.38;;
49392;SDS011;35268;42.642;23.308;2022-12-18T10:33:31;23.00;;;11.88;;
49392;SDS011;35268;42.642;23.308;2022-12-18T10:35:58;23.90;;;11.57;;
49392;SDS011;35268;42.642;23.308;2022-12-18T10:43:21;23.38;;;12.32;;
49392;SDS011;35268;42.642;23.308;2022-12-18T10:48:33;26.48;;;12.30;;
49392;SDS011;35268;42.642;23.308;2022-12-18T10:51:01;22.30;;;11.13;;
49392;SDS011;35268;42.642;23.308;2022-12-18T10:53:29;22.35;;;10.82;;
49392;SDS011;35268;42.642;23.308;2022-12-18T10:55:57;26.73;;;13.50;;
49392;SDS011;35268;42.642;23.308;2022-12-18T10:58:31;26.13;;;12.05;;
49392;SDS011;35268;42.642;23.308;2022-12-18T11:01:03;19.95;;;10.15;;
49392;SDS011;35268;42.642;23.308;2022-12-18T11:03:36;21.40;;;10.35;;
49392;SDS011;35268;42.642;23.308;2022-12-18T11:08:34;19.92;;;9.57;;
49392;SDS011;35268;42.642;23.308;2022-12-18T11:10:59;18.00;;;9.50;;
49392;SDS011;35268;42.642;23.308;2022-12-18T11:13:26;17.83;;;9.57;;
49392;SDS011;35268;42.642;23.308;2022-12-18T11:15:54;20.98;;;9.45;;
49392;SDS011;35268;42.642;23.308;2022-12-18T11:18:32;26.02;;;10.07;;
49392;SDS011;35268;42.642;23.308;2022-12-18T11:21:07;26.13;;;10.77;;
49392;SDS011;35268;42.642;23.308;2022-12-18T11:23:35;23.35;;;10.25;;
49392;SDS011;35268;42.642;23.308;2022-12-18T11:26:03;18.73;;;8.90;;
49392;SDS011;35268;42.642;23.308;2022-12-18T11:28:50;21.05;;;8.93;;
49392;SDS011;35268;42.642;23.308;2022-12-18T11:31:19;34.45;;;13.75;;
49392;SDS011;35268;42.642;23.308;2022-12-18T11:33:52;23.40;;;11.30;;
49392;SDS011;35268;42.642;23.308;2022-12-18T11:36:19;18.85;;;9.32;;
49392;SDS011;35268;42.642;23.308;2022-12-18T11:38:47;20.60;;;9.65;;
49392;SDS011;35268;42.642;23.308;2022-12-18T11:41:32;25.17;;;10.10;;
49392;SDS011;35268;42.642;23.308;2022-12-18T11:44:31;20.25;;;9.27;;
49392;SDS011;35268;42.642;23.308;2022-12-18T11:50:14;27.35;;;10.43;;
49392;SDS011;35268;42.642;23.308;2022-12-18T11:52:43;43.28;;;15.05;;
49392;SDS011;35268;42.642;23.308;2022-12-18T11:55:44;41.33;;;15.25;;
49392;SDS011;35268;42.642;23.308;2022-12-18T12:03:41;26.90;;;11.50;;
49392;SDS011;35268;42.642;23.308;2022-12-18T12:08:53;20.23;;;9.15;;
49392;SDS011;35268;42.642;23.308;2022-12-18T12:25:33;22.52;;;9.40;;
49392;SDS011;35268;42.642;23.308;2022-12-18T12:30:48;23.88;;;10.77;;
49392;SDS011;35268;42.642;23.308;2022-12-18T12:33:48;22.92;;;10.38;;
49392;SDS011;35268;42.642;23.308;2022-12-18T12:36:57;21.40;;;9.57;;
49392;SDS011;35268;42.642;23.308;2022-12-18T12:39:20;23.88;;;9.68;;
49392;SDS011;35268;42.642;23.308;2022-12-18T12:41:48;21.40;;;9.70;;
49392;SDS011;35268;42.642;23.308;2022-12-18T12:44:38;24.63;;;10.52;;
49392;SDS011;35268;42.642;23.308;2022-12-18T12:50:12;25.58;;;12.30;;
49392;SDS011;35268;42.642;23.308;2022-12-18T12:52:43;21.80;;;12.00;;
49392;SDS011;35268;42.642;23.308;2022-12-18T12:55:24;26.05;;;10.82;;
49392;SDS011;35268;42.642;23.308;2022-12-18T13:06:12;25.07;;;10.30;;
49392;SDS011;35268;42.642;23.308;2022-12-18T13:08:57;25.17;;;11.65;;
49392;SDS011;35268;42.642;23.308;2022-12-18T13:11:34;26.00;;;12.30;;
49392;SDS011;35268;42.642;23.308;2022-12-18T13:14:37;22.85;;;10.82;;
49392;SDS011;35268;42.642;23.308;2022-12-18T13:20:02;23.20;;;11.13;;
49392;SDS011;35268;42.642;23.308;2022-12-18T13:22:32;26.05;;;11.50;;
49392;SDS011;35268;42.642;23.308;2022-12-18T13:25:26;25.45;;;12.50;;
49392;SDS011;35268;42.642;23.308;2022-12-18T13:27:57;27.95;;;12.05;;
49392;SDS011;35268;42.642;23.308;2022-12-18T13:35:38;24.42;;;12.18;;
49392;SDS011;35268;42.642;23.308;2022-12-18T13:46:05;24.80;;;13.40;;
49392;SDS011;35268;42.642;23.308;2022-12-18T13:48:52;26.38;;;11.70;;
49392;SDS011;35268;42.642;23.308;2022-12-18T13:51:20;22.75;;;10.43;;
49392;SDS011;35268;42.642;23.308;2022-12-18T13:56:26;24.80;;;10.88;;
49392;SDS011;35268;42.642;23.308;2022-12-18T13:59:03;22.90;;;10.45;;
49392;SDS011;35268;42.642;23.308;2022-12-18T14:01:36;26.35;;;10.98;;
49392;SDS011;35268;42.642;23.308;2022-12-18T14:04:18;23.98;;;12.13;;
49392;SDS011;35268;42.642;23.308;2022-12-18T14:06:46;28.38;;;12.65;;
49392;SDS011;35268;42.642;23.308;2022-12-18T14:09:56;26.75;;;12.20;;
49392;SDS011;35268;42.642;23.308;2022-12-18T14:12:06;25.00;;;11.52;;
49392;SDS011;35268;42.642;23.308;2022-12-18T14:14:57;23.58;;;12.30;;
49392;SDS011;35268;42.642;23.308;2022-12-18T14:17:23;30.58;;;15.13;;
49392;SDS011;35268;42.642;23.308;2022-12-18T14:19:49;30.45;;;12.20;;
49392;SDS011;35268;42.642;23.308;2022-12-18T14:22:23;23.42;;;10.93;;
49392;SDS011;35268;42.642;23.308;2022-12-18T14:27:36;26.27;;;12.07;;
49392;SDS011;35268;42.642;23.308;2022-12-18T14:30:25;27.20;;;12.10;;
49392;SDS011;35268;42.642;23.308;2022-12-18T14:33:00;33.95;;;12.35;;
49392;SDS011;35268;42.642;23.308;2022-12-18T14:35:31;28.10;;;11.38;;
49392;SDS011;35268;42.642;23.308;2022-12-18T14:38:19;18.13;;;8.65;;
49392;SDS011;35268;42.642;23.308;2022-12-18T14:40:53;29.33;;;10.87;;
49392;SDS011;35268;42.642;23.308;2022-12-18T14:43:21;24.27;;;9.77;;
49392;SDS011;35268;42.642;23.308;2022-12-18T14:45:47;21.50;;;9.90;;
49392;SDS011;35268;42.642;23.308;2022-12-18T14:48:47;24.92;;;11.95;;
49392;SDS011;35268;42.642;23.308;2022-12-18T14:56:22;28.52;;;12.55;;
49392;SDS011;35268;42.642;23.308;2022-12-18T14:58:56;29.10;;;12.73;;
49392;SDS011;35268;42.642;23.308;2022-12-18T15:01:39;31.90;;;13.00;;
49392;SDS011;35268;42.642;23.308;2022-12-18T15:04:30;33.55;;;13.38;;
49392;SDS011;35268;42.642;23.308;2022-12-18T15:15:00;32.50;;;13.50;;
49392;SDS011;35268;42.642;23.308;2022-12-18T15:17:26;27.25;;;10.50;;
49392;SDS011;35268;42.642;23.308;2022-12-18T15:19:53;30.55;;;13.10;;
49392;SDS011;35268;42.642;23.308;2022-12-18T15:22:29;30.27;;;12.93;;
49392;SDS011;35268;42.642;23.308;2022-12-18T15:24:58;28.02;;;12.43;;
49392;SDS011;35268;42.642;23.308;2022-12-18T15:30:11;32.50;;;13.63;;
49392;SDS011;35268;42.642;23.308;2022-12-18T15:32:43;32.10;;;11.45;;
49392;SDS011;35268;42.642;23.308;2022-12-18T15:35:22;26.50;;;12.57;;
49392;SDS011;35268;42.642;23.308;2022-12-18T15:37:52;31.77;;;11.35;;
49392;SDS011;35268;42.642;23.308;2022-12-18T15:40:19;26.30;;;10.75;;
49392;SDS011;35268;42.642;23.308;2022-12-18T15:42:47;27.80;;;10.85;;
49392;SDS011;35268;42.642;23.308;2022-12-18T15:45:32;23.42;;;11.07;;
49392;SDS011;35268;42.642;23.308;2022-12-18T15:47:58;22.00;;;10.10;;
49392;SDS011;35268;42.642;23.308;2022-12-18T15:50:24;23.60;;;11.02;;
49392;SDS011;35268;42.642;23.308;2022-12-18T15:52:50;28.15;;;11.35;;
49392;SDS011;35268;42.642;23.308;2022-12-18T15:55:19;28.02;;;11.43;;
49392;SDS011;35268;42.642;23.308;2022-12-18T15:58:06;27.65;;;11.05;;
49392;SDS011;35268;42.642;23.308;2022-12-18T16:00:33;24.58;;;11.57;;
49392;SDS011;35268;42.642;23.308;2022-12-18T16:03:01;24.45;;;11.85;;
49392;SDS011;35268;42.642;23.308;2022-12-18T16:05:30;22.70;;;11.35;;
49392;SDS011;35268;42.642;23.308;2022-12-18T16:07:56;20.50;;;10.07;;
49392;SDS011;35268;42.642;23.308;2022-12-18T16:10:22;25.65;;;10.98;;
49392;SDS011;35268;42.642;23.308;2022-12-18T16:12:48;23.25;;;9.55;;
49392;SDS011;35268;42.642;23.308;2022-12-18T16:15:14;27.15;;;10.32;;
49392;SDS011;35268;42.642;23.308;2022-12-18T16:17:41;33.28;;;12.45;;
49392;SDS011;35268;42.642;23.308;2022-12-18T16:20:14;28.42;;;11.93;;
49392;SDS011;35268;42.642;23.308;2022-12-18T16:22:45;24.52;;;9.95;;
49392;SDS011;35268;42.642;23.308;2022-12-18T16:25:19;20.05;;;9.57;;
49392;SDS011;35268;42.642;23.308;2022-12-18T16:27:46;21.80;;;9.20;;
49392;SDS011;35268;42.642;23.308;2022-12-18T16:30:13;20.23;;;9.27;;
49392;SDS011;35268;42.642;23.308;2022-12-18T16:32:58;19.80;;;8.40;;
49392;SDS011;35268;42.642;23.308;2022-12-18T16:35:25;24.60;;;9.55;;
49392;SDS011;35268;42.642;23.308;2022-12-18T16:37:51;19.42;;;9.60;;
49392;SDS011;35268;42.642;23.308;2022-12-18T16:40:17;24.33;;;10.48;;
49392;SDS011;35268;42.642;23.308;2022-12-18T16:42:44;26.35;;;11.55;;
49392;SDS011;35268;42.642;23.308;2022-12-18T16:45:11;27.75;;;11.13;;
49392;SDS011;35268;42.642;23.308;2022-12-18T16:47:39;25.50;;;10.48;;
49392;SDS011;35268;42.642;23.308;2022-12-18T16:50:05;21.70;;;9.65;;